sensor_id;sensor_type;location;lat;lon;timestamp;P1;durP1;ratioP1;P2;durP2;ratioP2
55025;SDS011;40925;45.666;18.994;2023-11-21T00:01:17;55.45;;;32.47;;
55025;SDS011;40925;45.666;18.994;2023-11-21T00:03:43;56.30;;;32.83;;
55025;SDS011;40925;45.666;18.994;2023-11-21T00:06:09;57.15;;;33.97;;
55025;SDS011;40925;45.666;18.994;2023-11-21T00:08:35;56.22;;;32.50;;
55025;SDS011;40925;45.666;18.994;2023-11-21T00:11:01;57.55;;;33.65;;
55025;SDS011;40925;45.666;18.994;2023-11-21T00:13:30;59.20;;;34.75;;
55025;SDS011;40925;45.666;18.994;2023-11-21T01:01:27;76.28;;;43.38;;
55025;SDS011;40925;45.666;18.994;2023-11-21T01:03:53;78.25;;;43.28;;
55025;SDS011;40925;45.666;18.994;2023-11-21T01:06:19;78.25;;;44.42;;
55025;SDS011;40925;45.666;18.994;2023-11-21T01:08:44;81.03;;;45.40;;
55025;SDS011;40925;45.666;18.994;2023-11-21T01:11:10;76.90;;;43.20;;
55025;SDS011;40925;45.666;18.994;2023-11-21T01:13:40;81.78;;;44.47;;
55025;SDS011;40925;45.666;18.994;2023-11-21T01:16:06;75.57;;;44.25;;
55025;SDS011;40925;45.666;18.994;2023-11-21T01:18:33;81.47;;;45.78;;
55025;SDS011;40925;45.666;18.994;2023-11-21T01:20:59;77.80;;;44.03;;
55025;SDS011;40925;45.666;18.994;2023-11-21T01:23:28;77.47;;;45.13;;
55025;SDS011;40925;45.666;18.994;2023-11-21T01:25:55;76.47;;;44.53;;
55025;SDS011;40925;45.666;18.994;2023-11-21T01:28:22;81.90;;;45.53;;
55025;SDS011;40925;45.666;18.994;2023-11-21T01:30:48;78.78;;;46.25;;
55025;SDS011;40925;45.666;18.994;2023-11-21T01:33:14;83.10;;;45.15;;
55025;SDS011;40925;45.666;18.994;2023-11-21T01:35:43;77.93;;;44.97;;
55025;SDS011;40925;45.666;18.994;2023-11-21T01:38:11;75.40;;;43.65;;
55025;SDS011;40925;45.666;18.994;2023-11-21T01:40:37;74.85;;;42.53;;
55025;SDS011;40925;45.666;18.994;2023-11-21T01:43:03;74.20;;;41.17;;
55025;SDS011;40925;45.666;18.994;2023-11-21T01:45:29;72.20;;;41.72;;
55025;SDS011;40925;45.666;18.994;2023-11-21T01:47:56;71.57;;;40.75;;
55025;SDS011;40925;45.666;18.994;2023-11-21T01:50:23;73.25;;;40.67;;
55025;SDS011;40925;45.666;18.994;2023-11-21T01:52:50;70.22;;;41.35;;
55025;SDS011;40925;45.666;18.994;2023-11-21T01:55:17;66.25;;;40.25;;
55025;SDS011;40925;45.666;18.994;2023-11-21T01:57:43;68.63;;;38.95;;
55025;SDS011;40925;45.666;18.994;2023-11-21T02:00:11;68.18;;;39.47;;
55025;SDS011;40925;45.666;18.994;2023-11-21T02:02:43;68.25;;;38.53;;
55025;SDS011;40925;45.666;18.994;2023-11-21T02:05:13;67.70;;;39.45;;
55025;SDS011;40925;45.666;18.994;2023-11-21T02:07:42;65.90;;;38.38;;
55025;SDS011;40925;45.666;18.994;2023-11-21T02:10:08;65.32;;;37.85;;
55025;SDS011;40925;45.666;18.994;2023-11-21T02:12:34;67.88;;;38.50;;
55025;SDS011;40925;45.666;18.994;2023-11-21T02:15:04;68.03;;;38.42;;
55025;SDS011;40925;45.666;18.994;2023-11-21T02:17:34;68.82;;;37.55;;
55025;SDS011;40925;45.666;18.994;2023-11-21T02:20:01;71.68;;;40.28;;
55025;SDS011;40925;45.666;18.994;2023-11-21T02:22:28;73.32;;;42.42;;
55025;SDS011;40925;45.666;18.994;2023-11-21T02:24:59;75.68;;;43.83;;
55025;SDS011;40925;45.666;18.994;2023-11-21T02:27:26;81.30;;;46.17;;
55025;SDS011;40925;45.666;18.994;2023-11-21T02:29:52;79.75;;;45.58;;
55025;SDS011;40925;45.666;18.994;2023-11-21T02:32:19;85.93;;;47.35;;
55025;SDS011;40925;45.666;18.994;2023-11-21T02:34:47;87.50;;;48.38;;
55025;SDS011;40925;45.666;18.994;2023-11-21T02:37:13;88.55;;;50.08;;
55025;SDS011;40925;45.666;18.994;2023-11-21T02:39:39;88.85;;;51.15;;
55025;SDS011;40925;45.666;18.994;2023-11-21T02:42:05;92.80;;;52.17;;
55025;SDS011;40925;45.666;18.994;2023-11-21T02:44:32;92.60;;;51.92;;
55025;SDS011;40925;45.666;18.994;2023-11-21T02:46:57;92.88;;;52.67;;
55025;SDS011;40925;45.666;18.994;2023-11-21T02:49:23;92.28;;;51.22;;
55025;SDS011;40925;45.666;18.994;2023-11-21T02:51:49;87.50;;;50.20;;
55025;SDS011;40925;45.666;18.994;2023-11-21T02:54:14;86.65;;;50.13;;
55025;SDS011;40925;45.666;18.994;2023-11-21T02:56:42;86.78;;;49.63;;
55025;SDS011;40925;45.666;18.994;2023-11-21T02:59:07;89.28;;;49.95;;
55025;SDS011;40925;45.666;18.994;2023-11-21T03:01:33;90.63;;;50.83;;
55025;SDS011;40925;45.666;18.994;2023-11-21T03:03:59;90.07;;;50.55;;
55025;SDS011;40925;45.666;18.994;2023-11-21T03:06:25;87.78;;;49.10;;
55025;SDS011;40925;45.666;18.994;2023-11-21T03:08:51;86.07;;;48.55;;
55025;SDS011;40925;45.666;18.994;2023-11-21T03:11:16;80.32;;;47.40;;
55025;SDS011;40925;45.666;18.994;2023-11-21T03:13:42;76.47;;;45.80;;
55025;SDS011;40925;45.666;18.994;2023-11-21T03:16:11;77.53;;;44.10;;
55025;SDS011;40925;45.666;18.994;2023-11-21T03:18:40;72.53;;;41.50;;
55025;SDS011;40925;45.666;18.994;2023-11-21T03:21:08;65.32;;;39.35;;
55025;SDS011;40925;45.666;18.994;2023-11-21T03:23:35;70.80;;;41.80;;
55025;SDS011;40925;45.666;18.994;2023-11-21T03:26:01;75.93;;;42.08;;
55025;SDS011;40925;45.666;18.994;2023-11-21T03:28:27;71.53;;;42.70;;
55025;SDS011;40925;45.666;18.994;2023-11-21T03:30:53;70.07;;;42.88;;
55025;SDS011;40925;45.666;18.994;2023-11-21T03:33:19;67.90;;;33.70;;
55025;SDS011;40925;45.666;18.994;2023-11-21T03:35:45;83.45;;;46.50;;
55025;SDS011;40925;45.666;18.994;2023-11-21T03:38:11;71.18;;;40.17;;
55025;SDS011;40925;45.666;18.994;2023-11-21T03:40:38;74.88;;;41.08;;
55025;SDS011;40925;45.666;18.994;2023-11-21T03:43:05;76.05;;;42.63;;
55025;SDS011;40925;45.666;18.994;2023-11-21T03:45:31;77.82;;;42.90;;
55025;SDS011;40925;45.666;18.994;2023-11-21T03:47:58;87.05;;;46.70;;
55025;SDS011;40925;45.666;18.994;2023-11-21T03:50:26;78.65;;;44.75;;
55025;SDS011;40925;45.666;18.994;2023-11-21T03:52:53;94.03;;;54.22;;
55025;SDS011;40925;45.666;18.994;2023-11-21T03:55:19;86.50;;;48.00;;
55025;SDS011;40925;45.666;18.994;2023-11-21T03:57:48;80.43;;;45.55;;
55025;SDS011;40925;45.666;18.994;2023-11-21T04:00:14;74.60;;;42.13;;
55025;SDS011;40925;45.666;18.994;2023-11-21T04:02:40;73.07;;;42.35;;
55025;SDS011;40925;45.666;18.994;2023-11-21T04:05:06;76.65;;;41.70;;
55025;SDS011;40925;45.666;18.994;2023-11-21T04:07:32;73.97;;;41.55;;
55025;SDS011;40925;45.666;18.994;2023-11-21T04:09:59;69.38;;;41.38;;
55025;SDS011;40925;45.666;18.994;2023-11-21T04:12:25;69.80;;;41.22;;
55025;SDS011;40925;45.666;18.994;2023-11-21T04:14:51;74.25;;;42.35;;
55025;SDS011;40925;45.666;18.994;2023-11-21T04:17:20;68.82;;;42.45;;
55025;SDS011;40925;45.666;18.994;2023-11-21T04:19:46;70.47;;;41.83;;
55025;SDS011;40925;45.666;18.994;2023-11-21T04:22:12;65.28;;;39.75;;
55025;SDS011;40925;45.666;18.994;2023-11-21T04:24:38;68.72;;;40.47;;
55025;SDS011;40925;45.666;18.994;2023-11-21T04:27:04;64.85;;;39.67;;
55025;SDS011;40925;45.666;18.994;2023-11-21T04:29:30;68.55;;;39.63;;
55025;SDS011;40925;45.666;18.994;2023-11-21T04:31:55;69.28;;;40.38;;
55025;SDS011;40925;45.666;18.994;2023-11-21T04:34:21;66.93;;;40.05;;
55025;SDS011;40925;45.666;18.994;2023-11-21T04:36:47;63.28;;;39.60;;
55025;SDS011;40925;45.666;18.994;2023-11-21T04:39:13;55.72;;;34.58;;
55025;SDS011;40925;45.666;18.994;2023-11-21T04:41:38;58.13;;;34.10;;
55025;SDS011;40925;45.666;18.994;2023-11-21T04:44:05;52.00;;;33.22;;
55025;SDS011;40925;45.666;18.994;2023-11-21T04:46:31;55.47;;;32.83;;
55025;SDS011;40925;45.666;18.994;2023-11-21T04:48:57;59.13;;;33.58;;
55025;SDS011;40925;45.666;18.994;2023-11-21T04:51:23;59.00;;;34.65;;
55025;SDS011;40925;45.666;18.994;2023-11-21T04:53:49;58.53;;;34.33;;
55025;SDS011;40925;45.666;18.994;2023-11-21T04:56:15;60.33;;;35.55;;
55025;SDS011;40925;45.666;18.994;2023-11-21T04:58:41;55.53;;;34.05;;
55025;SDS011;40925;45.666;18.994;2023-11-21T05:01:07;52.17;;;32.10;;
55025;SDS011;40925;45.666;18.994;2023-11-21T05:03:36;54.30;;;31.85;;
55025;SDS011;40925;45.666;18.994;2023-11-21T05:06:03;55.80;;;32.67;;
55025;SDS011;40925;45.666;18.994;2023-11-21T05:08:30;52.92;;;31.95;;
55025;SDS011;40925;45.666;18.994;2023-11-21T05:10:56;56.70;;;32.65;;
55025;SDS011;40925;45.666;18.994;2023-11-21T05:13:22;56.22;;;33.30;;
55025;SDS011;40925;45.666;18.994;2023-11-21T05:15:52;62.00;;;35.60;;
55025;SDS011;40925;45.666;18.994;2023-11-21T05:18:19;63.15;;;37.95;;
55025;SDS011;40925;45.666;18.994;2023-11-21T05:20:45;66.95;;;40.08;;
55025;SDS011;40925;45.666;18.994;2023-11-21T05:23:12;60.65;;;38.03;;
55025;SDS011;40925;45.666;18.994;2023-11-21T05:25:38;62.55;;;38.50;;
55025;SDS011;40925;45.666;18.994;2023-11-21T05:28:03;62.83;;;38.22;;
55025;SDS011;40925;45.666;18.994;2023-11-21T05:30:29;64.38;;;38.50;;
55025;SDS011;40925;45.666;18.994;2023-11-21T05:32:55;58.10;;;35.90;;
55025;SDS011;40925;45.666;18.994;2023-11-21T05:35:20;64.18;;;38.15;;
55025;SDS011;40925;45.666;18.994;2023-11-21T05:37:46;64.15;;;38.53;;
55025;SDS011;40925;45.666;18.994;2023-11-21T05:40:12;64.47;;;38.70;;
55025;SDS011;40925;45.666;18.994;2023-11-21T05:42:39;64.97;;;39.80;;
55025;SDS011;40925;45.666;18.994;2023-11-21T05:45:06;66.38;;;39.58;;
55025;SDS011;40925;45.666;18.994;2023-11-21T05:47:41;70.32;;;40.50;;
55025;SDS011;40925;45.666;18.994;2023-11-21T05:50:12;65.30;;;39.28;;
55025;SDS011;40925;45.666;18.994;2023-11-21T05:52:42;65.97;;;39.58;;
55025;SDS011;40925;45.666;18.994;2023-11-21T05:55:22;63.85;;;37.47;;
55025;SDS011;40925;45.666;18.994;2023-11-21T05:57:50;67.25;;;38.08;;
55025;SDS011;40925;45.666;18.994;2023-11-21T06:00:16;66.40;;;39.65;;
55025;SDS011;40925;45.666;18.994;2023-11-21T06:02:45;68.65;;;37.17;;
55025;SDS011;40925;45.666;18.994;2023-11-21T06:05:12;59.67;;;34.92;;
55025;SDS011;40925;45.666;18.994;2023-11-21T06:07:38;54.95;;;34.25;;
55025;SDS011;40925;45.666;18.994;2023-11-21T06:10:05;58.78;;;35.55;;
55025;SDS011;40925;45.666;18.994;2023-11-21T06:12:34;57.28;;;35.25;;
55025;SDS011;40925;45.666;18.994;2023-11-21T06:15:03;63.70;;;37.17;;
55025;SDS011;40925;45.666;18.994;2023-11-21T06:17:30;67.65;;;39.90;;
55025;SDS011;40925;45.666;18.994;2023-11-21T06:19:56;62.80;;;36.58;;
55025;SDS011;40925;45.666;18.994;2023-11-21T06:22:22;60.33;;;35.40;;
55025;SDS011;40925;45.666;18.994;2023-11-21T06:24:48;61.85;;;36.20;;
55025;SDS011;40925;45.666;18.994;2023-11-21T06:27:14;60.63;;;35.25;;
55025;SDS011;40925;45.666;18.994;2023-11-21T06:29:41;54.60;;;32.58;;
55025;SDS011;40925;45.666;18.994;2023-11-21T06:32:07;56.92;;;33.60;;
55025;SDS011;40925;45.666;18.994;2023-11-21T06:34:33;56.97;;;33.72;;
55025;SDS011;40925;45.666;18.994;2023-11-21T06:36:59;57.05;;;33.90;;
55025;SDS011;40925;45.666;18.994;2023-11-21T06:39:24;59.38;;;35.90;;
55025;SDS011;40925;45.666;18.994;2023-11-21T06:41:50;60.38;;;36.25;;
55025;SDS011;40925;45.666;18.994;2023-11-21T06:44:16;64.60;;;38.67;;
55025;SDS011;40925;45.666;18.994;2023-11-21T06:46:41;60.90;;;36.53;;
55025;SDS011;40925;45.666;18.994;2023-11-21T06:49:08;62.05;;;37.70;;
55025;SDS011;40925;45.666;18.994;2023-11-21T06:51:33;61.78;;;36.78;;
55025;SDS011;40925;45.666;18.994;2023-11-21T06:53:59;57.30;;;36.20;;
55025;SDS011;40925;45.666;18.994;2023-11-21T06:56:25;64.05;;;36.75;;
55025;SDS011;40925;45.666;18.994;2023-11-21T06:58:51;60.28;;;36.38;;
55025;SDS011;40925;45.666;18.994;2023-11-21T07:01:19;59.83;;;34.97;;
55025;SDS011;40925;45.666;18.994;2023-11-21T07:03:44;57.25;;;33.78;;
55025;SDS011;40925;45.666;18.994;2023-11-21T07:06:10;55.17;;;32.97;;
55025;SDS011;40925;45.666;18.994;2023-11-21T07:08:39;57.63;;;34.38;;
55025;SDS011;40925;45.666;18.994;2023-11-21T07:11:05;58.72;;;34.60;;
55025;SDS011;40925;45.666;18.994;2023-11-21T07:13:31;56.25;;;33.75;;
55025;SDS011;40925;45.666;18.994;2023-11-21T07:15:57;59.35;;;34.72;;
55025;SDS011;40925;45.666;18.994;2023-11-21T07:18:24;55.15;;;32.78;;
55025;SDS011;40925;45.666;18.994;2023-11-21T07:20:50;52.28;;;31.05;;
55025;SDS011;40925;45.666;18.994;2023-11-21T07:23:16;58.80;;;34.35;;
55025;SDS011;40925;45.666;18.994;2023-11-21T07:25:42;55.88;;;30.38;;
55025;SDS011;40925;45.666;18.994;2023-11-21T07:28:08;56.95;;;31.88;;
55025;SDS011;40925;45.666;18.994;2023-11-21T07:30:34;49.92;;;27.52;;
55025;SDS011;40925;45.666;18.994;2023-11-21T07:32:59;41.90;;;25.15;;
55025;SDS011;40925;45.666;18.994;2023-11-21T07:35:25;39.20;;;22.67;;
55025;SDS011;40925;45.666;18.994;2023-11-21T07:37:51;38.80;;;22.45;;
55025;SDS011;40925;45.666;18.994;2023-11-21T07:40:17;35.63;;;20.65;;
55025;SDS011;40925;45.666;18.994;2023-11-21T07:42:43;33.83;;;18.65;;
55025;SDS011;40925;45.666;18.994;2023-11-21T07:45:09;29.60;;;18.48;;
55025;SDS011;40925;45.666;18.994;2023-11-21T07:47:34;27.85;;;17.30;;
55025;SDS011;40925;45.666;18.994;2023-11-21T07:52:28;22.45;;;12.45;;
55025;SDS011;40925;45.666;18.994;2023-11-21T07:54:54;19.83;;;11.68;;
55025;SDS011;40925;45.666;18.994;2023-11-21T07:57:19;20.30;;;10.88;;
55025;SDS011;40925;45.666;18.994;2023-11-21T07:59:45;20.45;;;11.38;;
55025;SDS011;40925;45.666;18.994;2023-11-21T08:02:10;20.02;;;10.65;;
55025;SDS011;40925;45.666;18.994;2023-11-21T08:04:36;23.38;;;12.13;;
55025;SDS011;40925;45.666;18.994;2023-11-21T08:07:02;27.27;;;14.43;;
55025;SDS011;40925;45.666;18.994;2023-11-21T08:09:28;20.98;;;10.40;;
55025;SDS011;40925;45.666;18.994;2023-11-21T08:11:55;19.88;;;10.05;;
55025;SDS011;40925;45.666;18.994;2023-11-21T08:14:21;17.70;;;10.15;;
55025;SDS011;40925;45.666;18.994;2023-11-21T08:16:50;26.10;;;14.25;;
55025;SDS011;40925;45.666;18.994;2023-11-21T08:19:16;26.17;;;14.82;;
55025;SDS011;40925;45.666;18.994;2023-11-21T08:21:43;18.95;;;10.65;;
55025;SDS011;40925;45.666;18.994;2023-11-21T08:24:09;19.23;;;11.23;;
55025;SDS011;40925;45.666;18.994;2023-11-21T08:26:36;19.33;;;10.75;;
55025;SDS011;40925;45.666;18.994;2023-11-21T08:29:02;19.92;;;10.77;;
55025;SDS011;40925;45.666;18.994;2023-11-21T08:31:28;19.20;;;11.27;;
55025;SDS011;40925;45.666;18.994;2023-11-21T08:33:57;20.30;;;11.13;;
55025;SDS011;40925;45.666;18.994;2023-11-21T08:36:26;18.83;;;10.48;;
55025;SDS011;40925;45.666;18.994;2023-11-21T08:38:51;16.15;;;8.95;;
55025;SDS011;40925;45.666;18.994;2023-11-21T08:41:17;14.93;;;9.27;;
55025;SDS011;40925;45.666;18.994;2023-11-21T08:43:47;13.27;;;8.15;;
55025;SDS011;40925;45.666;18.994;2023-11-21T08:46:14;10.63;;;7.10;;
55025;SDS011;40925;45.666;18.994;2023-11-21T08:48:42;12.35;;;6.53;;
55025;SDS011;40925;45.666;18.994;2023-11-21T08:51:09;13.63;;;7.15;;
55025;SDS011;40925;45.666;18.994;2023-11-21T08:53:36;13.40;;;7.57;;
55025;SDS011;40925;45.666;18.994;2023-11-21T08:56:02;11.77;;;7.40;;
55025;SDS011;40925;45.666;18.994;2023-11-21T08:58:29;11.32;;;7.72;;
55025;SDS011;40925;45.666;18.994;2023-11-21T09:00:57;10.63;;;6.72;;
55025;SDS011;40925;45.666;18.994;2023-11-21T09:03:23;11.30;;;6.75;;
55025;SDS011;40925;45.666;18.994;2023-11-21T09:05:48;14.15;;;7.20;;
55025;SDS011;40925;45.666;18.994;2023-11-21T09:08:14;9.43;;;6.25;;
55025;SDS011;40925;45.666;18.994;2023-11-21T09:10:40;12.00;;;5.90;;
55025;SDS011;40925;45.666;18.994;2023-11-21T09:13:08;9.30;;;5.63;;
55025;SDS011;40925;45.666;18.994;2023-11-21T09:15:34;11.23;;;5.95;;
55025;SDS011;40925;45.666;18.994;2023-11-21T09:18:00;11.55;;;7.15;;
55025;SDS011;40925;45.666;18.994;2023-11-21T09:20:27;11.85;;;6.75;;
55025;SDS011;40925;45.666;18.994;2023-11-21T09:22:55;11.07;;;6.55;;
55025;SDS011;40925;45.666;18.994;2023-11-21T09:25:21;9.73;;;5.72;;
55025;SDS011;40925;45.666;18.994;2023-11-21T09:27:47;8.30;;;4.80;;
55025;SDS011;40925;45.666;18.994;2023-11-21T09:30:13;6.72;;;3.95;;
55025;SDS011;40925;45.666;18.994;2023-11-21T09:32:42;8.95;;;4.25;;
55025;SDS011;40925;45.666;18.994;2023-11-21T09:35:10;8.20;;;4.18;;
55025;SDS011;40925;45.666;18.994;2023-11-21T09:37:36;7.97;;;4.05;;
55025;SDS011;40925;45.666;18.994;2023-11-21T09:40:03;6.88;;;3.90;;
55025;SDS011;40925;45.666;18.994;2023-11-21T09:42:32;6.32;;;2.80;;
55025;SDS011;40925;45.666;18.994;2023-11-21T09:48:05;7.57;;;3.15;;
55025;SDS011;40925;45.666;18.994;2023-11-21T09:50:31;8.80;;;3.92;;
55025;SDS011;40925;45.666;18.994;2023-11-21T09:55:44;5.85;;;3.47;;
55025;SDS011;40925;45.666;18.994;2023-11-21T09:58:11;4.55;;;2.70;;
55025;SDS011;40925;45.666;18.994;2023-11-21T10:00:41;6.88;;;3.20;;
55025;SDS011;40925;45.666;18.994;2023-11-21T10:03:09;6.45;;;2.92;;
55025;SDS011;40925;45.666;18.994;2023-11-21T10:05:36;6.32;;;3.53;;
55025;SDS011;40925;45.666;18.994;2023-11-21T10:08:07;7.60;;;3.30;;
55025;SDS011;40925;45.666;18.994;2023-11-21T10:10:35;6.78;;;3.28;;
55025;SDS011;40925;45.666;18.994;2023-11-21T10:13:03;6.50;;;2.80;;
55025;SDS011;40925;45.666;18.994;2023-11-21T10:15:33;5.28;;;2.92;;
55025;SDS011;40925;45.666;18.994;2023-11-21T10:18:00;8.50;;;3.50;;
55025;SDS011;40925;45.666;18.994;2023-11-21T10:20:34;6.45;;;3.40;;
55025;SDS011;40925;45.666;18.994;2023-11-21T10:23:02;7.25;;;2.50;;
55025;SDS011;40925;45.666;18.994;2023-11-21T10:25:29;6.38;;;2.40;;
55025;SDS011;40925;45.666;18.994;2023-11-21T10:27:59;5.90;;;2.85;;
55025;SDS011;40925;45.666;18.994;2023-11-21T10:30:44;5.30;;;2.55;;
55025;SDS011;40925;45.666;18.994;2023-11-21T10:33:13;4.97;;;3.03;;
55025;SDS011;40925;45.666;18.994;2023-11-21T10:38:07;5.47;;;2.50;;
55025;SDS011;40925;45.666;18.994;2023-11-21T10:40:38;6.57;;;2.88;;
55025;SDS011;40925;45.666;18.994;2023-11-21T10:43:07;5.93;;;2.85;;
55025;SDS011;40925;45.666;18.994;2023-11-21T10:45:34;7.43;;;4.13;;
55025;SDS011;40925;45.666;18.994;2023-11-21T10:48:07;16.13;;;7.72;;
55025;SDS011;40925;45.666;18.994;2023-11-21T10:50:43;7.13;;;4.05;;
55025;SDS011;40925;45.666;18.994;2023-11-21T10:53:12;7.85;;;3.60;;
55025;SDS011;40925;45.666;18.994;2023-11-21T10:55:38;6.38;;;3.00;;
55025;SDS011;40925;45.666;18.994;2023-11-21T10:58:04;10.32;;;4.20;;
55025;SDS011;40925;45.666;18.994;2023-11-21T11:00:31;8.43;;;3.53;;
55025;SDS011;40925;45.666;18.994;2023-11-21T11:02:58;8.15;;;3.10;;
55025;SDS011;40925;45.666;18.994;2023-11-21T11:05:27;13.40;;;4.72;;
55025;SDS011;40925;45.666;18.994;2023-11-21T11:10:31;15.95;;;4.38;;
55025;SDS011;40925;45.666;18.994;2023-11-21T11:12:58;12.18;;;4.18;;
55025;SDS011;40925;45.666;18.994;2023-11-21T11:15:27;13.90;;;4.55;;
55025;SDS011;40925;45.666;18.994;2023-11-21T11:17:53;23.88;;;7.90;;
55025;SDS011;40925;45.666;18.994;2023-11-21T11:20:29;12.43;;;5.95;;
55025;SDS011;40925;45.666;18.994;2023-11-21T11:23:04;11.13;;;5.40;;
55025;SDS011;40925;45.666;18.994;2023-11-21T11:31:21;7.78;;;3.10;;
55025;SDS011;40925;45.666;18.994;2023-11-21T11:37:02;8.18;;;4.15;;
55025;SDS011;40925;45.666;18.994;2023-11-21T11:39:30;11.38;;;5.03;;
55025;SDS011;40925;45.666;18.994;2023-11-21T11:42:06;9.30;;;4.50;;
55025;SDS011;40925;45.666;18.994;2023-11-21T11:50:14;10.07;;;3.78;;
55025;SDS011;40925;45.666;18.994;2023-11-21T11:55:12;12.07;;;4.43;;
55025;SDS011;40925;45.666;18.994;2023-11-21T11:57:40;10.82;;;4.25;;
55025;SDS011;40925;45.666;18.994;2023-11-21T12:02:49;12.55;;;5.57;;
55025;SDS011;40925;45.666;18.994;2023-11-21T12:05:19;25.63;;;11.02;;
55025;SDS011;40925;45.666;18.994;2023-11-21T12:10:14;17.67;;;9.30;;
55025;SDS011;40925;45.666;18.994;2023-11-21T12:12:45;11.02;;;6.15;;
55025;SDS011;40925;45.666;18.994;2023-11-21T12:15:11;10.15;;;5.22;;
55025;SDS011;40925;45.666;18.994;2023-11-21T12:17:38;12.88;;;5.93;;
55025;SDS011;40925;45.666;18.994;2023-11-21T12:20:08;9.45;;;4.40;;
55025;SDS011;40925;45.666;18.994;2023-11-21T12:22:45;11.82;;;5.95;;
55025;SDS011;40925;45.666;18.994;2023-11-21T12:25:15;9.38;;;5.38;;
55025;SDS011;40925;45.666;18.994;2023-11-21T12:27:49;10.93;;;6.40;;
55025;SDS011;40925;45.666;18.994;2023-11-21T12:30:19;9.88;;;5.65;;
55025;SDS011;40925;45.666;18.994;2023-11-21T12:32:49;11.40;;;6.40;;
55025;SDS011;40925;45.666;18.994;2023-11-21T12:35:16;9.25;;;4.88;;
55025;SDS011;40925;45.666;18.994;2023-11-21T12:37:45;19.63;;;9.82;;
55025;SDS011;40925;45.666;18.994;2023-11-21T12:40:12;13.10;;;7.70;;
55025;SDS011;40925;45.666;18.994;2023-11-21T12:42:46;16.40;;;8.73;;
55025;SDS011;40925;45.666;18.994;2023-11-21T12:47:42;13.68;;;6.38;;
55025;SDS011;40925;45.666;18.994;2023-11-21T12:50:12;10.18;;;5.10;;
55025;SDS011;40925;45.666;18.994;2023-11-21T12:52:41;11.15;;;5.25;;
55025;SDS011;40925;45.666;18.994;2023-11-21T12:55:13;6.20;;;3.10;;
55025;SDS011;40925;45.666;18.994;2023-11-21T12:57:41;6.13;;;3.00;;
55025;SDS011;40925;45.666;18.994;2023-11-21T13:00:08;7.00;;;3.00;;
55025;SDS011;40925;45.666;18.994;2023-11-21T13:02:40;6.22;;;3.30;;
55025;SDS011;40925;45.666;18.994;2023-11-21T13:08:44;7.20;;;3.40;;
55025;SDS011;40925;45.666;18.994;2023-11-21T13:11:10;7.63;;;4.07;;
55025;SDS011;40925;45.666;18.994;2023-11-21T13:13:40;14.98;;;7.97;;
55025;SDS011;40925;45.666;18.994;2023-11-21T13:16:10;11.32;;;5.22;;
55025;SDS011;40925;45.666;18.994;2023-11-21T13:18:37;12.90;;;6.40;;
55025;SDS011;40925;45.666;18.994;2023-11-21T13:24:27;8.95;;;5.00;;
55025;SDS011;40925;45.666;18.994;2023-11-21T13:26:53;11.80;;;5.30;;
55025;SDS011;40925;45.666;18.994;2023-11-21T13:29:19;10.55;;;5.55;;
55025;SDS011;40925;45.666;18.994;2023-11-21T13:31:46;15.18;;;8.90;;
55025;SDS011;40925;45.666;18.994;2023-11-21T13:34:18;9.00;;;5.03;;
55025;SDS011;40925;45.666;18.994;2023-11-21T13:36:47;11.27;;;5.75;;
55025;SDS011;40925;45.666;18.994;2023-11-21T13:39:16;7.25;;;4.80;;
55025;SDS011;40925;45.666;18.994;2023-11-21T13:41:44;7.25;;;4.55;;
55025;SDS011;40925;45.666;18.994;2023-11-21T13:44:19;31.08;;;15.15;;
55025;SDS011;40925;45.666;18.994;2023-11-21T13:46:54;13.73;;;7.10;;
55025;SDS011;40925;45.666;18.994;2023-11-21T13:49:21;13.15;;;7.78;;
55025;SDS011;40925;45.666;18.994;2023-11-21T13:51:48;12.93;;;7.40;;
55025;SDS011;40925;45.666;18.994;2023-11-21T13:54:17;13.10;;;7.38;;
55025;SDS011;40925;45.666;18.994;2023-11-21T13:56:46;12.25;;;6.53;;
55025;SDS011;40925;45.666;18.994;2023-11-21T13:59:12;12.65;;;8.32;;
55025;SDS011;40925;45.666;18.994;2023-11-21T14:01:50;16.85;;;8.90;;
55025;SDS011;40925;45.666;18.994;2023-11-21T14:04:42;20.15;;;10.05;;
55025;SDS011;40925;45.666;18.994;2023-11-21T14:07:23;15.07;;;9.27;;
55025;SDS011;40925;45.666;18.994;2023-11-21T14:10:01;18.25;;;11.45;;
55025;SDS011;40925;45.666;18.994;2023-11-21T14:12:28;16.60;;;11.52;;
55025;SDS011;40925;45.666;18.994;2023-11-21T14:14:58;20.10;;;12.93;;
55025;SDS011;40925;45.666;18.994;2023-11-21T14:17:25;23.63;;;14.98;;
55025;SDS011;40925;45.666;18.994;2023-11-21T14:19:52;15.68;;;10.50;;
55025;SDS011;40925;45.666;18.994;2023-11-21T14:22:20;22.65;;;14.25;;
55025;SDS011;40925;45.666;18.994;2023-11-21T14:24:46;20.35;;;13.02;;
55025;SDS011;40925;45.666;18.994;2023-11-21T14:27:12;21.50;;;14.07;;
55025;SDS011;40925;45.666;18.994;2023-11-21T14:29:40;20.23;;;13.00;;
55025;SDS011;40925;45.666;18.994;2023-11-21T14:32:09;15.15;;;8.52;;
55025;SDS011;40925;45.666;18.994;2023-11-21T14:34:35;15.35;;;9.02;;
55025;SDS011;40925;45.666;18.994;2023-11-21T14:37:01;16.27;;;10.23;;
55025;SDS011;40925;45.666;18.994;2023-11-21T14:39:28;16.45;;;9.73;;
55025;SDS011;40925;45.666;18.994;2023-11-21T14:41:55;17.48;;;11.25;;
55025;SDS011;40925;45.666;18.994;2023-11-21T14:44:21;15.52;;;10.02;;
55025;SDS011;40925;45.666;18.994;2023-11-21T14:46:53;25.52;;;15.48;;
55025;SDS011;40925;45.666;18.994;2023-11-21T14:49:20;56.10;;;29.88;;
55025;SDS011;40925;45.666;18.994;2023-11-21T14:51:48;24.92;;;13.63;;
55025;SDS011;40925;45.666;18.994;2023-11-21T14:54:25;26.67;;;17.08;;
55025;SDS011;40925;45.666;18.994;2023-11-21T14:57:17;19.60;;;12.20;;
55025;SDS011;40925;45.666;18.994;2023-11-21T14:59:44;28.77;;;18.58;;
55025;SDS011;40925;45.666;18.994;2023-11-21T15:02:14;48.05;;;27.98;;
55025;SDS011;40925;45.666;18.994;2023-11-21T15:04:43;122.78;;;46.05;;
55025;SDS011;40925;45.666;18.994;2023-11-21T15:07:10;50.88;;;22.75;;
55025;SDS011;40925;45.666;18.994;2023-11-21T15:09:38;84.18;;;41.90;;
55025;SDS011;40925;45.666;18.994;2023-11-21T15:12:07;26.88;;;16.15;;
55025;SDS011;40925;45.666;18.994;2023-11-21T15:14:49;20.02;;;11.18;;
55025;SDS011;40925;45.666;18.994;2023-11-21T15:17:19;17.48;;;10.23;;
55025;SDS011;40925;45.666;18.994;2023-11-21T15:19:49;25.88;;;16.05;;
55025;SDS011;40925;45.666;18.994;2023-11-21T15:22:15;17.73;;;10.93;;
55025;SDS011;40925;45.666;18.994;2023-11-21T15:24:41;19.38;;;11.60;;
55025;SDS011;40925;45.666;18.994;2023-11-21T15:27:09;20.42;;;12.50;;
55025;SDS011;40925;45.666;18.994;2023-11-21T15:29:36;20.35;;;13.35;;
55025;SDS011;40925;45.666;18.994;2023-11-21T15:32:04;21.80;;;14.27;;
55025;SDS011;40925;45.666;18.994;2023-11-21T15:34:31;23.67;;;14.45;;
55025;SDS011;40925;45.666;18.994;2023-11-21T15:36:57;26.98;;;17.60;;
55025;SDS011;40925;45.666;18.994;2023-11-21T15:39:23;29.52;;;18.33;;
55025;SDS011;40925;45.666;18.994;2023-11-21T15:41:54;28.58;;;16.05;;
55025;SDS011;40925;45.666;18.994;2023-11-21T15:44:20;20.23;;;13.45;;
55025;SDS011;40925;45.666;18.994;2023-11-21T15:46:45;20.35;;;13.48;;
55025;SDS011;40925;45.666;18.994;2023-11-21T15:49:13;22.88;;;14.00;;